createdAt,value
2023-04-15T00:02:00.197Z,13.60
2023-04-15T00:04:28.915Z,13.60
2023-04-15T00:06:57.200Z,13.60
2023-04-15T00:09:26.634Z,13.60
2023-04-15T00:11:54.668Z,13.60
2023-04-15T00:14:22.710Z,13.60
2023-04-15T00:16:56.217Z,13.60
2023-04-15T00:19:24.596Z,13.60
2023-04-15T00:21:52.664Z,13.60
2023-04-15T00:24:20.758Z,13.60
2023-04-15T00:26:50.276Z,13.60
2023-04-15T00:29:18.361Z,13.50
2023-04-15T00:31:46.412Z,13.50
2023-04-15T00:34:14.944Z,13.50
2023-04-15T00:36:43.033Z,13.50
2023-04-15T00:39:11.149Z,13.50
2023-04-15T00:41:40.202Z,13.50
2023-04-15T00:44:10.518Z,13.50
2023-04-15T00:46:39.862Z,13.40
2023-04-15T00:49:08.379Z,13.40
2023-04-15T00:51:37.250Z,13.40
2023-04-15T00:54:05.977Z,13.30
2023-04-15T00:56:38.079Z,13.30
2023-04-15T00:59:07.075Z,13.30
2023-04-15T01:01:38.404Z,13.30
2023-04-15T01:04:06.980Z,13.30
2023-04-15T01:06:35.198Z,13.30
2023-04-15T01:09:03.878Z,13.30
2023-04-15T01:11:34.291Z,13.30
2023-04-15T01:14:02.737Z,13.20
2023-04-15T01:16:30.957Z,13.20
2023-04-15T01:19:00.718Z,13.10
2023-04-15T01:21:29.966Z,13.10
2023-04-15T01:23:58.669Z,13.00
2023-04-15T01:26:28.427Z,12.90
2023-04-15T01:28:56.530Z,12.80
2023-04-15T01:31:24.645Z,12.80
2023-04-15T01:33:52.859Z,12.70
2023-04-15T01:36:20.907Z,12.70
2023-04-15T01:38:49.138Z,12.60
2023-04-15T01:41:17.287Z,12.50
2023-04-15T01:43:46.715Z,12.50
2023-04-15T01:46:14.786Z,12.40
2023-04-15T01:48:42.924Z,12.40
2023-04-15T01:51:11.409Z,12.40
2023-04-15T01:53:39.632Z,12.30
2023-04-15T01:56:08.393Z,12.30
2023-04-15T01:58:36.527Z,12.20
2023-04-15T02:01:07.010Z,12.30
2023-04-15T02:03:35.255Z,12.20
2023-04-15T02:06:04.620Z,12.20
2023-04-15T02:08:32.715Z,12.10
2023-04-15T02:11:01.244Z,12.10
2023-04-15T02:13:29.688Z,12.10
2023-04-15T02:15:59.310Z,12.10
2023-04-15T02:18:28.766Z,12.10
2023-04-15T02:20:58.562Z,12.10
2023-04-15T02:23:26.917Z,12.10
2023-04-15T02:25:54.977Z,12.10
2023-04-15T02:28:23.257Z,12.10
2023-04-15T02:30:53.379Z,12.10
2023-04-15T02:33:22.775Z,12.10
2023-04-15T02:35:53.244Z,12.10
2023-04-15T02:38:21.281Z,12.10
2023-04-15T02:40:50.440Z,12.10
2023-04-15T02:43:18.539Z,12.10
2023-04-15T02:45:49.427Z,12.10
2023-04-15T02:48:19.502Z,12.10
2023-04-15T02:50:47.954Z,12.10
2023-04-15T02:53:17.629Z,12.10
2023-04-15T02:55:46.200Z,12.20
2023-04-15T02:58:14.477Z,12.20
2023-04-15T03:00:42.525Z,12.30
2023-04-15T03:03:10.965Z,12.40
2023-04-15T03:05:40.031Z,12.40
2023-04-15T03:08:08.240Z,12.50
2023-04-15T03:10:37.701Z,12.50
2023-04-15T03:13:05.749Z,12.60
2023-04-15T03:15:34.476Z,12.60
2023-04-15T03:18:02.732Z,12.60
2023-04-15T03:20:30.861Z,12.70
2023-04-15T03:22:58.894Z,12.70
2023-04-15T03:25:27.119Z,12.70
2023-04-15T03:27:56.940Z,12.70
2023-04-15T03:30:25.062Z,12.80
2023-04-15T03:32:53.151Z,12.80
2023-04-15T03:35:21.291Z,12.80
2023-04-15T03:37:49.353Z,12.80
2023-04-15T03:40:17.431Z,12.80
2023-04-15T03:42:45.499Z,12.80
2023-04-15T03:45:14.993Z,12.90
2023-04-15T03:47:43.130Z,12.90
2023-04-15T03:50:11.658Z,12.90
2023-04-15T03:52:40.024Z,12.90
2023-04-15T03:55:09.698Z,12.90
2023-04-15T03:57:39.063Z,12.90
2023-04-15T04:00:09.321Z,12.80
2023-04-15T04:02:39.263Z,12.90
2023-04-15T04:05:08.215Z,12.90
2023-04-15T04:07:36.609Z,12.90
2023-04-15T04:10:04.963Z,12.90
2023-04-15T04:12:32.993Z,12.90
2023-04-15T04:15:01.099Z,12.90
2023-04-15T04:17:29.178Z,12.90
2023-04-15T04:19:58.612Z,12.80
2023-04-15T04:22:27.660Z,12.90
2023-04-15T04:24:55.721Z,12.90
2023-04-15T04:27:23.786Z,12.90
2023-04-15T04:29:51.843Z,12.90
2023-04-15T04:32:19.867Z,12.80
2023-04-15T04:34:48.151Z,12.80
2023-04-15T04:37:17.769Z,12.80
2023-04-15T04:39:45.816Z,12.80
2023-04-15T04:42:13.881Z,12.80
2023-04-15T04:44:41.953Z,12.80
2023-04-15T04:47:10.029Z,12.70
2023-04-15T04:49:38.226Z,12.70
2023-04-15T04:52:07.248Z,12.70
2023-04-15T04:54:37.248Z,12.70
2023-04-15T04:57:05.376Z,12.70
2023-04-15T04:59:33.407Z,12.70
2023-04-15T05:02:01.671Z,12.70
2023-04-15T05:04:31.231Z,12.70
2023-04-15T05:06:59.527Z,12.70
2023-04-15T05:09:28.139Z,12.70
2023-04-15T05:11:57.553Z,12.70
2023-04-15T05:14:25.585Z,12.70
2023-04-15T05:16:53.657Z,12.60
2023-04-15T05:19:21.678Z,12.50
2023-04-15T05:21:49.772Z,12.50
2023-04-15T05:24:18.207Z,12.40
2023-04-15T05:26:46.378Z,12.40
2023-04-15T05:29:16.162Z,12.30
2023-04-15T05:31:44.375Z,12.20
2023-04-15T05:34:12.760Z,12.20
2023-04-15T05:36:41.120Z,12.10
2023-04-15T05:39:09.191Z,12.10
2023-04-15T05:41:38.101Z,12.10
2023-04-15T05:44:06.677Z,12.10
2023-04-15T05:46:36.477Z,12.10
2023-04-15T05:49:04.671Z,12.20
2023-04-15T05:51:32.776Z,12.20
2023-04-15T05:54:01.375Z,12.30
2023-04-15T05:56:29.417Z,12.40
2023-04-15T05:58:57.548Z,12.50
2023-04-15T06:01:26.151Z,12.50
2023-04-15T06:03:56.064Z,12.50
2023-04-15T06:06:24.302Z,12.60
2023-04-15T06:08:52.360Z,12.60
2023-04-15T06:11:22.049Z,12.60
2023-04-15T06:13:50.161Z,12.70
2023-04-15T06:16:18.251Z,12.80
2023-04-15T06:18:46.430Z,12.90
2023-04-15T06:21:16.025Z,13.00
2023-04-15T06:23:44.250Z,13.10
2023-04-15T06:26:12.260Z,13.20
2023-04-15T06:28:40.432Z,13.40
2023-04-15T06:31:08.532Z,13.50
2023-04-15T06:33:36.593Z,13.60
2023-04-15T06:36:04.805Z,13.60
2023-04-15T06:38:34.241Z,13.60
2023-04-15T06:41:02.345Z,13.50
2023-04-15T06:43:30.769Z,13.60
2023-04-15T06:45:58.836Z,13.60
2023-04-15T06:48:27.561Z,13.60
2023-04-15T06:50:56.183Z,13.60
2023-04-15T06:53:24.234Z,13.60
2023-04-15T06:55:53.642Z,13.70
2023-04-15T06:58:21.848Z,13.70
2023-04-15T07:00:50.055Z,13.80
2023-04-15T07:03:19.029Z,13.90
2023-04-15T07:05:47.173Z,13.90
2023-04-15T07:08:15.254Z,14.00
2023-04-15T07:10:43.313Z,14.00
2023-04-15T07:13:12.811Z,14.10
2023-04-15T07:15:41.302Z,14.10
2023-04-15T07:18:09.664Z,14.20
2023-04-15T07:20:37.934Z,14.30
2023-04-15T07:23:06.225Z,14.30
2023-04-15T07:25:34.293Z,14.40
2023-04-15T07:28:02.547Z,14.50
2023-04-15T07:30:32.005Z,14.60
2023-04-15T07:33:00.489Z,14.60
2023-04-15T07:35:29.434Z,14.70
2023-04-15T07:37:57.775Z,14.70
2023-04-15T07:40:25.894Z,14.80
2023-04-15T07:42:53.949Z,14.80
2023-04-15T07:45:22.074Z,14.90
2023-04-15T07:47:51.902Z,14.90
2023-04-15T07:50:20.284Z,15.00
2023-04-15T07:52:48.933Z,15.00
2023-04-15T07:55:20.057Z,15.10
2023-04-15T07:57:48.489Z,15.20
2023-04-15T08:00:17.347Z,15.20
2023-04-15T08:02:46.979Z,15.30
2023-04-15T08:05:16.694Z,15.30
2023-04-15T08:07:44.781Z,15.40
2023-04-15T08:10:13.122Z,15.50
2023-04-15T08:12:41.497Z,15.50
2023-04-15T08:15:10.423Z,15.50
2023-04-15T08:17:38.569Z,15.50
2023-04-15T08:20:07.791Z,15.60
2023-04-15T08:22:37.267Z,15.70
2023-04-15T08:25:05.816Z,15.80
2023-04-15T08:27:33.864Z,15.80
2023-04-15T08:30:04.642Z,15.90
2023-04-15T08:32:33.276Z,16.00
2023-04-15T08:35:01.825Z,16.20
2023-04-15T08:37:29.937Z,16.30
2023-04-15T08:39:59.349Z,16.40
2023-04-15T08:42:32.463Z,16.50
2023-04-15T08:45:02.243Z,16.60
2023-04-15T08:47:32.881Z,16.70
2023-04-15T08:50:01.145Z,16.80
2023-04-15T08:52:29.809Z,16.80
2023-04-15T08:55:01.333Z,16.90
2023-04-15T08:57:30.130Z,16.90
2023-04-15T08:59:58.812Z,17.00
2023-04-15T09:02:28.473Z,17.10
2023-04-15T09:04:56.810Z,17.10
2023-04-15T09:07:24.878Z,17.20
2023-04-15T09:09:52.943Z,17.30
2023-04-15T09:12:22.494Z,17.40
2023-04-15T09:14:50.943Z,17.50
2023-04-15T09:17:21.804Z,17.60
2023-04-15T09:19:50.066Z,17.70
2023-04-15T09:22:18.153Z,17.80
2023-04-15T09:24:46.484Z,17.80
2023-04-15T09:27:17.938Z,17.90
2023-04-15T09:29:51.779Z,18.00
2023-04-15T09:32:21.265Z,18.10
2023-04-15T09:34:49.479Z,18.30
2023-04-15T09:37:31.663Z,18.40
2023-04-15T09:40:00.631Z,18.60
2023-04-15T09:42:28.879Z,18.80
2023-04-15T09:45:09.759Z,19.00
2023-04-15T09:47:37.825Z,19.20
2023-04-15T09:50:06.966Z,19.40
2023-04-15T09:52:35.029Z,19.60
2023-04-15T09:55:03.100Z,19.80
2023-04-15T09:57:36.764Z,20.00
2023-04-15T10:00:08.360Z,20.20
2023-04-15T10:02:37.150Z,20.40
2023-04-15T10:05:06.082Z,20.60
2023-04-15T10:07:35.158Z,20.90
2023-04-15T10:10:05.394Z,21.10
2023-04-15T10:12:34.197Z,21.40
2023-04-15T10:15:07.160Z,21.60
2023-04-15T10:17:37.162Z,21.90
2023-04-15T10:20:07.666Z,22.10
2023-04-15T10:22:37.400Z,22.30
2023-04-15T10:25:07.137Z,22.50
2023-04-15T10:27:35.552Z,22.80
2023-04-15T10:30:04.033Z,23.10
2023-04-15T10:32:33.939Z,23.40
2023-04-15T10:35:04.247Z,23.60
2023-04-15T10:37:37.344Z,23.80
2023-04-15T10:40:28.265Z,24.00
2023-04-15T10:42:57.271Z,24.10
2023-04-15T10:45:28.375Z,24.30
2023-04-15T10:47:59.628Z,24.50
2023-04-15T10:50:29.977Z,24.70
2023-04-15T10:52:58.442Z,24.90
2023-04-15T10:55:28.087Z,25.30
2023-04-15T10:58:00.877Z,25.60
2023-04-15T11:00:31.501Z,25.80
2023-04-15T11:03:07.107Z,25.90
2023-04-15T11:05:51.736Z,26.20
2023-04-15T11:08:20.553Z,26.50
2023-04-15T11:10:57.362Z,26.70
2023-04-15T11:13:29.437Z,27.00
2023-04-15T11:16:01.327Z,27.20
2023-04-15T11:18:33.063Z,27.40
2023-04-15T11:21:03.547Z,27.60
2023-04-15T11:23:38.131Z,27.70
2023-04-15T11:26:09.696Z,28.00
2023-04-15T11:28:39.207Z,28.10
2023-04-15T11:31:10.693Z,28.20
2023-04-15T11:33:47.038Z,28.30
2023-04-15T11:36:15.140Z,28.50
2023-04-15T11:38:48.659Z,28.60
2023-04-15T11:43:45.400Z,28.90
2023-04-15T11:46:13.480Z,29.10
2023-04-15T11:48:44.928Z,29.20
2023-04-15T11:51:13.945Z,29.40
2023-04-15T11:53:43.408Z,29.70
2023-04-15T11:56:12.791Z,29.80
2023-04-15T11:58:40.917Z,29.80
2023-04-15T12:01:08.970Z,30.10
2023-04-15T12:03:43.777Z,30.10
2023-04-15T12:08:52.741Z,30.50
2023-04-15T12:11:21.022Z,30.70
2023-04-15T12:13:50.696Z,30.80
2023-04-15T12:16:19.399Z,30.90
2023-04-15T12:18:51.993Z,30.90
2023-04-15T12:21:22.616Z,31.10
2023-04-15T12:23:52.076Z,31.00
2023-04-15T12:26:26.724Z,31.20
2023-04-15T12:28:55.549Z,31.20
2023-04-15T12:31:23.823Z,30.90
2023-04-15T12:33:55.910Z,30.50
2023-04-15T12:36:24.060Z,29.90
2023-04-15T12:38:52.111Z,29.50
2023-04-15T12:41:21.335Z,29.00
2023-04-15T12:43:49.393Z,28.50
2023-04-15T12:46:17.648Z,27.90
2023-04-15T12:48:46.332Z,27.40
2023-04-15T12:51:15.839Z,26.80
2023-04-15T12:53:43.888Z,26.40
2023-04-15T12:56:12.002Z,26.00
2023-04-15T12:58:40.048Z,25.70
2023-04-15T13:01:08.509Z,25.40
2023-04-15T13:03:36.719Z,25.10
2023-04-15T13:06:05.990Z,24.80
2023-04-15T13:08:38.410Z,24.50
2023-04-15T13:11:08.470Z,24.30
2023-04-15T13:13:36.698Z,24.10
2023-04-15T13:16:04.988Z,23.90
2023-04-15T13:18:34.803Z,23.70
2023-04-15T13:21:05.404Z,23.60
2023-04-15T13:23:34.964Z,23.40
2023-04-15T13:26:03.081Z,23.30
2023-04-15T13:28:31.225Z,23.10
2023-04-15T13:31:00.328Z,23.00
2023-04-15T13:33:28.790Z,22.90
2023-04-15T13:35:57.527Z,22.80
2023-04-15T13:38:26.666Z,22.60
2023-04-15T13:40:56.134Z,22.40
2023-04-15T13:43:24.226Z,22.30
2023-04-15T13:45:52.394Z,22.20
2023-04-15T13:48:20.712Z,22.10
2023-04-15T13:50:48.755Z,22.10
2023-04-15T13:53:16.863Z,22.10
2023-04-15T13:55:44.934Z,22.00
2023-04-15T13:58:14.403Z,22.00
2023-04-15T14:00:42.515Z,22.00
2023-04-15T14:03:10.693Z,21.90
2023-04-15T14:05:39.281Z,21.80
2023-04-15T14:08:07.445Z,21.70
2023-04-15T14:10:36.169Z,21.60
2023-04-15T14:13:04.298Z,21.50
2023-04-15T14:15:33.736Z,21.40
2023-04-15T14:18:01.992Z,21.30
2023-04-15T14:20:30.069Z,21.30
2023-04-15T14:22:58.149Z,21.20
2023-04-15T14:25:33.618Z,21.20
2023-04-15T14:28:02.359Z,21.20
2023-04-15T14:30:30.582Z,21.10
2023-04-15T14:33:00.432Z,21.10
2023-04-15T14:35:28.650Z,21.10
2023-04-15T14:37:56.970Z,21.00
2023-04-15T14:40:25.335Z,21.00
2023-04-15T14:42:53.740Z,20.90
2023-04-15T14:45:21.829Z,20.90
2023-04-15T14:47:50.017Z,20.90
2023-04-15T14:50:19.856Z,20.80
2023-04-15T14:52:48.459Z,20.80
2023-04-15T14:55:16.610Z,20.70
2023-04-15T14:57:44.955Z,20.70
2023-04-15T15:00:15.985Z,20.60
2023-04-15T15:02:44.596Z,20.60
2023-04-15T15:05:21.551Z,20.50
2023-04-15T15:07:51.044Z,20.40
2023-04-15T15:10:38.210Z,20.40
2023-04-15T15:13:19.850Z,20.40
2023-04-15T15:15:49.446Z,20.40
2023-04-15T15:18:18.935Z,20.30
2023-04-15T15:20:47.622Z,20.30
2023-04-15T15:23:17.061Z,20.30
2023-04-15T15:25:46.892Z,20.30
2023-04-15T15:28:15.042Z,20.20
2023-04-15T15:30:43.105Z,20.20
2023-04-15T15:33:11.210Z,20.20
2023-04-15T15:35:39.321Z,20.10
2023-04-15T15:38:07.432Z,20.10
2023-04-15T15:40:36.858Z,20.10
2023-04-15T15:43:05.358Z,20.10
2023-04-15T15:45:33.656Z,20.00
2023-04-15T15:48:02.820Z,20.00
2023-04-15T15:50:30.995Z,20.00
2023-04-15T15:52:59.573Z,19.90
2023-04-15T15:55:28.114Z,19.90
2023-04-15T15:58:03.198Z,19.90
2023-04-15T16:00:31.402Z,19.90
2023-04-15T16:03:05.707Z,19.90
2023-04-15T16:05:38.612Z,19.80
2023-04-15T16:08:07.261Z,19.80
2023-04-15T16:10:35.387Z,19.80
2023-04-15T16:13:04.871Z,19.80
2023-04-15T16:15:48.941Z,19.70
2023-04-15T16:18:28.730Z,19.70
2023-04-15T16:20:56.770Z,19.60
2023-04-15T16:23:29.358Z,19.50
2023-04-15T16:26:19.119Z,19.30
2023-04-15T16:28:48.572Z,19.20
2023-04-15T16:31:25.540Z,19.00
2023-04-15T16:37:04.094Z,18.60
2023-04-15T16:39:40.460Z,18.50
2023-04-15T16:42:08.557Z,18.50
2023-04-15T16:44:51.659Z,18.40
2023-04-15T16:47:19.750Z,18.20
2023-04-15T16:49:55.991Z,18.20
2023-04-15T16:52:39.416Z,18.10
2023-04-15T16:55:16.524Z,18.00
2023-04-15T16:58:03.047Z,18.00
2023-04-15T17:00:35.904Z,17.90
2023-04-15T17:03:04.497Z,17.80
2023-04-15T17:05:46.970Z,17.70
2023-04-15T17:08:23.025Z,17.70
2023-04-15T17:11:12.501Z,17.60
2023-04-15T17:13:40.566Z,17.60
2023-04-15T17:16:18.574Z,17.50
2023-04-15T17:19:03.144Z,17.50
2023-04-15T17:21:31.624Z,17.40
2023-04-15T17:23:59.694Z,17.40
2023-04-15T17:26:34.791Z,17.30
2023-04-15T17:29:50.736Z,17.30
2023-04-15T17:32:34.458Z,17.30
2023-04-15T17:35:05.944Z,17.20
2023-04-15T17:37:34.118Z,17.20
2023-04-15T17:40:02.312Z,17.20
2023-04-15T17:42:30.391Z,17.10
2023-04-15T17:44:58.465Z,17.10
2023-04-15T17:47:28.617Z,17.00
2023-04-15T17:49:56.678Z,17.00
2023-04-15T17:52:24.780Z,16.90
2023-04-15T17:54:52.830Z,16.80
2023-04-15T17:57:20.940Z,16.80
2023-04-15T17:59:49.367Z,16.80
2023-04-15T18:02:17.671Z,16.70
2023-04-15T18:04:47.410Z,16.70
2023-04-15T18:07:16.118Z,16.60
2023-04-15T18:09:44.374Z,16.50
2023-04-15T18:12:12.454Z,16.50
2023-04-15T18:14:40.884Z,16.50
2023-04-15T18:17:09.014Z,16.40
2023-04-15T18:19:37.052Z,16.40
2023-04-15T18:22:06.489Z,16.40
2023-04-15T18:24:34.807Z,16.30
2023-04-15T18:27:03.789Z,16.30
2023-04-15T18:29:32.222Z,16.30
2023-04-15T18:32:02.759Z,16.20
2023-04-15T18:34:31.201Z,16.20
2023-04-15T18:36:59.709Z,16.20
2023-04-15T18:39:29.374Z,16.20
2023-04-15T18:41:57.592Z,16.10
2023-04-15T18:44:25.716Z,16.10
2023-04-15T18:46:53.803Z,16.10
2023-04-15T18:49:21.837Z,16.10
2023-04-15T18:51:50.126Z,16.10
2023-04-15T18:54:18.201Z,16.10
2023-04-15T18:56:47.624Z,16.10
2023-04-15T18:59:29.068Z,16.10
2023-04-15T19:01:59.657Z,16.00
2023-04-15T19:04:28.838Z,16.00
2023-04-15T19:06:58.818Z,16.00
2023-04-15T19:09:27.221Z,16.00
2023-04-15T19:11:56.858Z,16.00
2023-04-15T19:14:25.734Z,15.90
2023-04-15T19:16:53.871Z,15.90
2023-04-15T19:19:22.232Z,15.90
2023-04-15T19:21:50.537Z,15.90
2023-04-15T19:24:18.897Z,15.90
2023-04-15T19:26:49.753Z,15.90
2023-04-15T19:29:19.462Z,15.90
2023-04-15T19:31:47.510Z,15.80
2023-04-15T19:34:15.847Z,15.90
2023-04-15T19:36:44.220Z,15.80
2023-04-15T19:39:12.503Z,15.80
2023-04-15T19:41:40.621Z,15.70
2023-04-15T19:44:08.736Z,15.70
2023-04-15T19:46:38.304Z,15.70
2023-04-15T19:49:06.751Z,15.70
2023-04-15T19:51:35.064Z,15.70
2023-04-15T19:54:03.304Z,15.70
2023-04-15T19:56:33.681Z,15.60
2023-04-15T19:59:02.869Z,15.60
2023-04-15T20:01:31.385Z,15.60
2023-04-15T20:04:03.428Z,15.50
2023-04-15T20:06:31.655Z,15.50
2023-04-15T20:09:00.034Z,15.50
2023-04-15T20:12:44.801Z,15.40
2023-04-15T20:14:17.628Z,15.30
2023-04-15T20:16:46.041Z,15.20
2023-04-15T20:19:15.538Z,15.20
2023-04-15T20:21:43.685Z,15.10
2023-04-15T20:24:11.906Z,15.10
2023-04-15T20:26:40.004Z,15.00
2023-04-15T20:29:08.292Z,15.00
2023-04-15T20:31:36.839Z,15.00
2023-04-15T20:34:04.951Z,14.90
2023-04-15T20:36:34.455Z,14.90
2023-04-15T20:39:02.730Z,14.80
2023-04-15T20:41:30.969Z,14.80
2023-04-15T20:43:59.029Z,14.70
2023-04-15T20:46:27.714Z,14.60
2023-04-15T20:48:56.774Z,14.60
2023-04-15T20:51:24.819Z,14.60
2023-04-15T20:53:54.251Z,14.50
2023-04-15T20:56:22.369Z,14.50
2023-04-15T20:58:50.446Z,14.50
2023-04-15T21:01:18.622Z,14.50
2023-04-15T21:03:46.874Z,14.40
2023-04-15T21:06:15.137Z,14.40
2023-04-15T21:08:43.192Z,14.30
2023-04-15T21:11:14.837Z,14.30
2023-04-15T21:13:50.716Z,14.30
2023-04-15T21:16:18.826Z,14.20
2023-04-15T21:18:46.967Z,14.20
2023-04-15T21:21:15.020Z,14.20
2023-04-15T21:23:43.428Z,14.10
2023-04-15T21:26:12.874Z,14.00
2023-04-15T21:28:41.005Z,14.00
2023-04-15T21:31:09.105Z,14.00
2023-04-15T21:33:37.240Z,13.90
2023-04-15T21:36:05.913Z,13.90
2023-04-15T21:38:34.593Z,13.80
2023-04-15T21:41:06.458Z,13.80
2023-04-15T21:43:35.932Z,13.80
2023-04-15T21:46:22.157Z,13.70
2023-04-15T21:48:52.254Z,13.70
2023-04-15T21:51:20.450Z,13.60
2023-04-15T21:53:48.629Z,13.50
2023-04-15T21:56:16.796Z,13.50
2023-04-15T21:58:46.322Z,13.50
2023-04-15T22:01:14.452Z,13.40
2023-04-15T22:03:42.652Z,13.40
2023-04-15T22:06:10.840Z,13.30
2023-04-15T22:08:52.546Z,13.30
2023-04-15T22:11:27.262Z,13.20
2023-04-15T22:16:26.411Z,13.10
2023-04-15T22:18:54.790Z,13.10
2023-04-15T22:21:22.947Z,13.10
2023-04-15T22:23:51.038Z,13.10
2023-04-15T22:26:19.117Z,13.00
2023-04-15T22:28:47.226Z,13.00
2023-04-15T22:31:16.655Z,13.00
2023-04-15T22:33:44.700Z,13.00
2023-04-15T22:36:13.541Z,13.00
2023-04-15T22:38:41.675Z,13.00
2023-04-15T22:41:10.420Z,13.00
2023-04-15T22:43:38.462Z,13.00
2023-04-15T22:46:06.734Z,13.00
2023-04-15T22:48:36.388Z,13.00
2023-04-15T22:51:05.988Z,13.00
2023-04-15T22:53:34.082Z,13.00
2023-04-15T22:56:02.325Z,13.00
2023-04-15T22:58:32.072Z,12.90
2023-04-15T23:01:00.227Z,12.90
2023-04-15T23:03:28.452Z,12.90
2023-04-15T23:05:58.118Z,12.90
2023-04-15T23:08:26.369Z,12.90
2023-04-15T23:10:54.575Z,12.90
2023-04-15T23:13:22.789Z,12.90
2023-04-15T23:15:51.155Z,12.90
2023-04-15T23:18:19.396Z,12.90
2023-04-15T23:20:47.733Z,12.90
2023-04-15T23:23:17.406Z,12.90
2023-04-15T23:25:45.718Z,12.90
2023-04-15T23:28:13.935Z,12.80
2023-04-15T23:30:42.239Z,12.80
2023-04-15T23:33:12.023Z,12.80
2023-04-15T23:35:40.382Z,12.70
2023-04-15T23:38:08.650Z,12.70
2023-04-15T23:40:38.282Z,12.70
2023-04-15T23:43:06.571Z,12.60
2023-04-15T23:45:34.776Z,12.60
2023-04-15T23:48:03.315Z,12.60
2023-04-15T23:50:31.564Z,12.60
2023-04-15T23:52:59.790Z,12.60
2023-04-15T23:55:27.990Z,12.60
2023-04-15T23:57:57.633Z,12.60
